DAAT/TMR METAR and TAF weather

Enter ICAO airport designator
Station Type Date Time Source
DAAT METAR 2021/05/11 21:30 UTC NOAA

DAAT 112130Z 20008G20KT 9999 SCT046 SCT100 33/// Q1022


Station Type Date Time Source
DAAT Decoded METAR 2021/05/11 21:30 UTC NOAA

Tamanrasset / Aguenna, Algeria (DAAT) 22-49N 005-28E
May 11, 2021 - 05:30 PM EDT / 2021.05.11 2130 UTC
Wind: from the SSW (200 degrees) at 9 MPH (8 KT) gusting to 23 MPH (20 KT):0
Visibility: greater than 7 mile(s):0
Sky conditions: partly cloudy
Temperature: 91 F (33 C)
Pressure (altimeter): 30.18 in. Hg (1022 hPa)
ob: DAAT 112130Z 20008G20KT 9999 SCT046 SCT100 33/// Q1022
cycle: 21

Station Type Date Time Source
DAAT TAF 2021/05/11 19:44 UTC NOAA

TAF
AMD DAAT 111934Z 1119/1218 02008KT 9999 SCT046
TEMPO 1119/1122 FEW040CB PROB40
TEMPO 1203/1209 03015G25KT FEW046TCU

Example: see airport list